sensor_id;sensor_type;location;lat;lon;timestamp;P1;durP1;ratioP1;P2;durP2;ratioP2
10412;SDS011;5252;42.602;23.386;2022-12-18T00:01:40;5.97;;;5.38;;
10412;SDS011;5252;42.602;23.386;2022-12-18T00:04:07;6.90;;;6.20;;
10412;SDS011;5252;42.602;23.386;2022-12-18T00:06:41;6.55;;;5.88;;
10412;SDS011;5252;42.602;23.386;2022-12-18T00:09:08;6.03;;;5.03;;
10412;SDS011;5252;42.602;23.386;2022-12-18T00:11:35;5.57;;;5.07;;
10412;SDS011;5252;42.602;23.386;2022-12-18T00:14:03;6.18;;;5.20;;
10412;SDS011;5252;42.602;23.386;2022-12-18T00:16:29;6.00;;;5.40;;
10412;SDS011;5252;42.602;23.386;2022-12-18T00:18:58;6.75;;;5.63;;
10412;SDS011;5252;42.602;23.386;2022-12-18T00:21:25;6.78;;;6.07;;
10412;SDS011;5252;42.602;23.386;2022-12-18T00:23:52;7.05;;;6.07;;
10412;SDS011;5252;42.602;23.386;2022-12-18T00:26:19;7.53;;;6.35;;
10412;SDS011;5252;42.602;23.386;2022-12-18T00:28:46;7.30;;;6.10;;
10412;SDS011;5252;42.602;23.386;2022-12-18T00:31:14;7.63;;;6.82;;
10412;SDS011;5252;42.602;23.386;2022-12-18T00:33:41;8.55;;;7.50;;
10412;SDS011;5252;42.602;23.386;2022-12-18T00:36:09;7.38;;;6.47;;
10412;SDS011;5252;42.602;23.386;2022-12-18T00:38:36;7.55;;;6.75;;
10412;SDS011;5252;42.602;23.386;2022-12-18T00:41:03;7.30;;;6.60;;
10412;SDS011;5252;42.602;23.386;2022-12-18T00:43:30;8.75;;;7.57;;
10412;SDS011;5252;42.602;23.386;2022-12-18T00:45:56;8.52;;;7.40;;
10412;SDS011;5252;42.602;23.386;2022-12-18T00:48:24;7.20;;;6.50;;
10412;SDS011;5252;42.602;23.386;2022-12-18T00:50:50;7.60;;;6.30;;
10412;SDS011;5252;42.602;23.386;2022-12-18T00:53:17;6.68;;;5.97;;
10412;SDS011;5252;42.602;23.386;2022-12-18T00:55:44;6.20;;;5.35;;
10412;SDS011;5252;42.602;23.386;2022-12-18T00:58:11;6.40;;;5.65;;
10412;SDS011;5252;42.602;23.386;2022-12-18T01:00:38;8.32;;;6.15;;
10412;SDS011;5252;42.602;23.386;2022-12-18T01:03:05;6.55;;;5.95;;
10412;SDS011;5252;42.602;23.386;2022-12-18T01:05:33;6.32;;;5.72;;
10412;SDS011;5252;42.602;23.386;2022-12-18T01:08:00;7.00;;;6.03;;
10412;SDS011;5252;42.602;23.386;2022-12-18T01:10:26;7.57;;;6.15;;
10412;SDS011;5252;42.602;23.386;2022-12-18T01:12:53;6.82;;;5.90;;
10412;SDS011;5252;42.602;23.386;2022-12-18T01:15:19;8.23;;;6.68;;
10412;SDS011;5252;42.602;23.386;2022-12-18T01:17:46;6.07;;;5.47;;
10412;SDS011;5252;42.602;23.386;2022-12-18T01:20:12;13.15;;;10.93;;
10412;SDS011;5252;42.602;23.386;2022-12-18T01:22:40;7.35;;;6.65;;
10412;SDS011;5252;42.602;23.386;2022-12-18T01:25:07;8.95;;;6.47;;
10412;SDS011;5252;42.602;23.386;2022-12-18T01:27:34;6.60;;;6.00;;
10412;SDS011;5252;42.602;23.386;2022-12-18T01:30:01;7.00;;;6.03;;
10412;SDS011;5252;42.602;23.386;2022-12-18T01:32:29;7.47;;;6.68;;
10412;SDS011;5252;42.602;23.386;2022-12-18T01:34:55;6.85;;;6.15;;
10412;SDS011;5252;42.602;23.386;2022-12-18T01:37:22;7.50;;;6.70;;
10412;SDS011;5252;42.602;23.386;2022-12-18T01:39:51;7.43;;;6.55;;
10412;SDS011;5252;42.602;23.386;2022-12-18T01:42:19;6.68;;;5.93;;
10412;SDS011;5252;42.602;23.386;2022-12-18T01:44:56;7.20;;;6.50;;
10412;SDS011;5252;42.602;23.386;2022-12-18T01:47:23;7.57;;;6.78;;
10412;SDS011;5252;42.602;23.386;2022-12-18T01:49:51;9.18;;;7.50;;
10412;SDS011;5252;42.602;23.386;2022-12-18T01:52:17;29.73;;;17.08;;
10412;SDS011;5252;42.602;23.386;2022-12-18T01:54:45;12.57;;;9.60;;
10412;SDS011;5252;42.602;23.386;2022-12-18T01:57:13;12.73;;;8.95;;
10412;SDS011;5252;42.602;23.386;2022-12-18T01:59:40;9.98;;;8.43;;
10412;SDS011;5252;42.602;23.386;2022-12-18T02:02:08;9.13;;;8.13;;
10412;SDS011;5252;42.602;23.386;2022-12-18T02:04:35;10.75;;;8.77;;
10412;SDS011;5252;42.602;23.386;2022-12-18T02:07:03;11.00;;;9.27;;
10412;SDS011;5252;42.602;23.386;2022-12-18T02:09:33;9.73;;;8.73;;
10412;SDS011;5252;42.602;23.386;2022-12-18T02:12:04;10.40;;;8.70;;
10412;SDS011;5252;42.602;23.386;2022-12-18T02:14:34;10.05;;;8.45;;
10412;SDS011;5252;42.602;23.386;2022-12-18T02:17:02;10.20;;;9.07;;
10412;SDS011;5252;42.602;23.386;2022-12-18T02:19:37;10.63;;;9.50;;
10412;SDS011;5252;42.602;23.386;2022-12-18T02:22:08;11.05;;;9.32;;
10412;SDS011;5252;42.602;23.386;2022-12-18T02:24:40;12.57;;;9.27;;
10412;SDS011;5252;42.602;23.386;2022-12-18T02:27:10;11.85;;;10.23;;
10412;SDS011;5252;42.602;23.386;2022-12-18T02:29:38;10.98;;;8.98;;
10412;SDS011;5252;42.602;23.386;2022-12-18T02:32:06;12.00;;;10.23;;
10412;SDS011;5252;42.602;23.386;2022-12-18T02:34:35;12.70;;;10.82;;
10412;SDS011;5252;42.602;23.386;2022-12-18T02:37:03;11.25;;;9.85;;
10412;SDS011;5252;42.602;23.386;2022-12-18T02:39:30;12.13;;;10.73;;
10412;SDS011;5252;42.602;23.386;2022-12-18T02:41:59;11.95;;;10.40;;
10412;SDS011;5252;42.602;23.386;2022-12-18T02:44:28;11.98;;;10.77;;
10412;SDS011;5252;42.602;23.386;2022-12-18T02:46:55;12.30;;;11.00;;
10412;SDS011;5252;42.602;23.386;2022-12-18T02:49:25;13.57;;;11.63;;
10412;SDS011;5252;42.602;23.386;2022-12-18T02:51:53;12.80;;;11.35;;
10412;SDS011;5252;42.602;23.386;2022-12-18T02:54:32;12.50;;;11.02;;
10412;SDS011;5252;42.602;23.386;2022-12-18T02:57:04;12.20;;;10.77;;
10412;SDS011;5252;42.602;23.386;2022-12-18T02:59:33;12.30;;;10.77;;
10412;SDS011;5252;42.602;23.386;2022-12-18T03:02:04;13.10;;;11.70;;
10412;SDS011;5252;42.602;23.386;2022-12-18T03:04:35;13.65;;;11.35;;
10412;SDS011;5252;42.602;23.386;2022-12-18T03:07:05;14.10;;;11.18;;
10412;SDS011;5252;42.602;23.386;2022-12-18T03:09:34;12.38;;;11.18;;
10412;SDS011;5252;42.602;23.386;2022-12-18T03:12:02;11.68;;;10.52;;
10412;SDS011;5252;42.602;23.386;2022-12-18T03:14:50;12.88;;;11.48;;
10412;SDS011;5252;42.602;23.386;2022-12-18T03:17:18;12.30;;;11.00;;
10412;SDS011;5252;42.602;23.386;2022-12-18T03:19:46;11.68;;;10.50;;
10412;SDS011;5252;42.602;23.386;2022-12-18T03:22:13;12.07;;;10.90;;
10412;SDS011;5252;42.602;23.386;2022-12-18T03:24:41;11.50;;;10.25;;
10412;SDS011;5252;42.602;23.386;2022-12-18T03:27:09;11.32;;;10.07;;
10412;SDS011;5252;42.602;23.386;2022-12-18T03:29:37;11.20;;;10.10;;
10412;SDS011;5252;42.602;23.386;2022-12-18T03:32:07;11.55;;;10.45;;
10412;SDS011;5252;42.602;23.386;2022-12-18T03:34:37;11.45;;;10.25;;
10412;SDS011;5252;42.602;23.386;2022-12-18T03:37:05;12.20;;;11.00;;
10412;SDS011;5252;42.602;23.386;2022-12-18T03:39:32;11.55;;;10.45;;
10412;SDS011;5252;42.602;23.386;2022-12-18T03:42:00;15.20;;;13.80;;
10412;SDS011;5252;42.602;23.386;2022-12-18T03:44:30;11.80;;;10.60;;
10412;SDS011;5252;42.602;23.386;2022-12-18T03:46:59;11.80;;;10.23;;
10412;SDS011;5252;42.602;23.386;2022-12-18T03:49:31;12.50;;;11.30;;
10412;SDS011;5252;42.602;23.386;2022-12-18T03:52:01;11.95;;;10.82;;
10412;SDS011;5252;42.602;23.386;2022-12-18T03:54:29;11.82;;;10.70;;
10412;SDS011;5252;42.602;23.386;2022-12-18T03:56:58;11.73;;;10.63;;
10412;SDS011;5252;42.602;23.386;2022-12-18T03:59:26;9.80;;;8.90;;
10412;SDS011;5252;42.602;23.386;2022-12-18T04:01:53;9.23;;;8.25;;
10412;SDS011;5252;42.602;23.386;2022-12-18T04:04:21;8.60;;;7.80;;
10412;SDS011;5252;42.602;23.386;2022-12-18T04:06:49;8.10;;;7.30;;
10412;SDS011;5252;42.602;23.386;2022-12-18T04:09:17;9.02;;;8.07;;
10412;SDS011;5252;42.602;23.386;2022-12-18T04:11:44;8.60;;;7.70;;
10412;SDS011;5252;42.602;23.386;2022-12-18T04:14:12;7.30;;;6.70;;
10412;SDS011;5252;42.602;23.386;2022-12-18T04:16:38;7.60;;;6.90;;
10412;SDS011;5252;42.602;23.386;2022-12-18T04:19:05;8.63;;;7.72;;
10412;SDS011;5252;42.602;23.386;2022-12-18T04:21:32;7.60;;;6.90;;
10412;SDS011;5252;42.602;23.386;2022-12-18T04:24:00;6.47;;;5.88;;
10412;SDS011;5252;42.602;23.386;2022-12-18T04:26:26;7.45;;;6.75;;
10412;SDS011;5252;42.602;23.386;2022-12-18T04:28:53;7.35;;;6.68;;
10412;SDS011;5252;42.602;23.386;2022-12-18T04:31:19;7.07;;;6.45;;
10412;SDS011;5252;42.602;23.386;2022-12-18T04:33:46;7.85;;;7.15;;
10412;SDS011;5252;42.602;23.386;2022-12-18T04:36:12;7.03;;;6.32;;
10412;SDS011;5252;42.602;23.386;2022-12-18T04:38:39;7.22;;;6.57;;
10412;SDS011;5252;42.602;23.386;2022-12-18T04:41:07;7.70;;;7.00;;
10412;SDS011;5252;42.602;23.386;2022-12-18T04:43:33;7.47;;;6.78;;
10412;SDS011;5252;42.602;23.386;2022-12-18T04:46:03;7.05;;;6.35;;
10412;SDS011;5252;42.602;23.386;2022-12-18T04:48:30;7.07;;;6.47;;
10412;SDS011;5252;42.602;23.386;2022-12-18T04:50:56;7.93;;;7.18;;
10412;SDS011;5252;42.602;23.386;2022-12-18T04:53:23;9.52;;;8.25;;
10412;SDS011;5252;42.602;23.386;2022-12-18T04:55:49;7.80;;;7.00;;
10412;SDS011;5252;42.602;23.386;2022-12-18T04:58:17;7.38;;;6.68;;
10412;SDS011;5252;42.602;23.386;2022-12-18T05:00:44;7.22;;;6.53;;
10412;SDS011;5252;42.602;23.386;2022-12-18T05:03:10;7.25;;;6.35;;
10412;SDS011;5252;42.602;23.386;2022-12-18T05:05:37;9.57;;;8.57;;
10412;SDS011;5252;42.602;23.386;2022-12-18T05:08:03;8.75;;;7.88;;
10412;SDS011;5252;42.602;23.386;2022-12-18T05:10:30;9.45;;;8.48;;
10412;SDS011;5252;42.602;23.386;2022-12-18T05:12:57;10.82;;;8.23;;
10412;SDS011;5252;42.602;23.386;2022-12-18T05:15:28;8.93;;;8.02;;
10412;SDS011;5252;42.602;23.386;2022-12-18T05:17:55;8.13;;;7.32;;
10412;SDS011;5252;42.602;23.386;2022-12-18T05:20:22;9.00;;;8.10;;
10412;SDS011;5252;42.602;23.386;2022-12-18T05:22:48;9.40;;;8.40;;
10412;SDS011;5252;42.602;23.386;2022-12-18T05:25:15;9.18;;;8.27;;
10412;SDS011;5252;42.602;23.386;2022-12-18T05:27:42;8.55;;;7.65;;
10412;SDS011;5252;42.602;23.386;2022-12-18T05:30:09;26.73;;;20.05;;
10412;SDS011;5252;42.602;23.386;2022-12-18T05:32:37;12.27;;;9.43;;
10412;SDS011;5252;42.602;23.386;2022-12-18T05:35:04;8.88;;;7.97;;
10412;SDS011;5252;42.602;23.386;2022-12-18T05:37:31;9.38;;;8.48;;
10412;SDS011;5252;42.602;23.386;2022-12-18T05:39:57;9.27;;;8.30;;
10412;SDS011;5252;42.602;23.386;2022-12-18T05:42:24;9.75;;;8.75;;
10412;SDS011;5252;42.602;23.386;2022-12-18T05:44:50;9.48;;;8.52;;
10412;SDS011;5252;42.602;23.386;2022-12-18T05:47:17;9.60;;;8.70;;
10412;SDS011;5252;42.602;23.386;2022-12-18T05:49:45;10.30;;;9.20;;
10412;SDS011;5252;42.602;23.386;2022-12-18T05:52:11;10.02;;;9.02;;
10412;SDS011;5252;42.602;23.386;2022-12-18T05:54:38;9.95;;;8.95;;
10412;SDS011;5252;42.602;23.386;2022-12-18T05:57:05;10.10;;;9.18;;
10412;SDS011;5252;42.602;23.386;2022-12-18T05:59:31;9.50;;;8.52;;
10412;SDS011;5252;42.602;23.386;2022-12-18T06:01:58;10.50;;;9.27;;
10412;SDS011;5252;42.602;23.386;2022-12-18T06:04:26;10.38;;;9.38;;
10412;SDS011;5252;42.602;23.386;2022-12-18T06:06:54;13.95;;;12.38;;
10412;SDS011;5252;42.602;23.386;2022-12-18T06:09:20;10.60;;;9.45;;
10412;SDS011;5252;42.602;23.386;2022-12-18T06:11:47;10.70;;;9.57;;
10412;SDS011;5252;42.602;23.386;2022-12-18T06:14:13;11.07;;;9.88;;
10412;SDS011;5252;42.602;23.386;2022-12-18T06:16:42;14.10;;;11.15;;
10412;SDS011;5252;42.602;23.386;2022-12-18T06:19:13;12.73;;;11.13;;
10412;SDS011;5252;42.602;23.386;2022-12-18T06:21:40;13.95;;;11.98;;
10412;SDS011;5252;42.602;23.386;2022-12-18T06:24:08;13.57;;;11.90;;
10412;SDS011;5252;42.602;23.386;2022-12-18T06:26:36;13.35;;;12.10;;
10412;SDS011;5252;42.602;23.386;2022-12-18T06:29:03;12.50;;;11.20;;
10412;SDS011;5252;42.602;23.386;2022-12-18T06:31:29;13.02;;;11.73;;
10412;SDS011;5252;42.602;23.386;2022-12-18T06:33:56;11.70;;;10.50;;
10412;SDS011;5252;42.602;23.386;2022-12-18T06:36:23;12.18;;;10.88;;
10412;SDS011;5252;42.602;23.386;2022-12-18T06:38:49;20.52;;;15.98;;
10412;SDS011;5252;42.602;23.386;2022-12-18T06:41:19;21.73;;;16.25;;
10412;SDS011;5252;42.602;23.386;2022-12-18T06:43:45;10.82;;;9.73;;
10412;SDS011;5252;42.602;23.386;2022-12-18T06:46:12;11.15;;;10.05;;
10412;SDS011;5252;42.602;23.386;2022-12-18T06:48:38;11.65;;;10.52;;
10412;SDS011;5252;42.602;23.386;2022-12-18T06:51:05;10.13;;;8.85;;
10412;SDS011;5252;42.602;23.386;2022-12-18T06:53:32;11.20;;;10.00;;
10412;SDS011;5252;42.602;23.386;2022-12-18T06:55:59;11.70;;;10.55;;
10412;SDS011;5252;42.602;23.386;2022-12-18T06:58:28;11.75;;;10.55;;
10412;SDS011;5252;42.602;23.386;2022-12-18T07:00:58;11.20;;;10.10;;
10412;SDS011;5252;42.602;23.386;2022-12-18T07:03:25;10.02;;;8.93;;
10412;SDS011;5252;42.602;23.386;2022-12-18T07:05:51;10.65;;;9.55;;
10412;SDS011;5252;42.602;23.386;2022-12-18T07:08:18;11.25;;;10.05;;
10412;SDS011;5252;42.602;23.386;2022-12-18T07:10:45;10.35;;;9.32;;
10412;SDS011;5252;42.602;23.386;2022-12-18T07:13:11;9.93;;;8.93;;
10412;SDS011;5252;42.602;23.386;2022-12-18T07:15:39;13.25;;;11.85;;
10412;SDS011;5252;42.602;23.386;2022-12-18T07:18:06;10.98;;;9.88;;
10412;SDS011;5252;42.602;23.386;2022-12-18T07:20:32;10.20;;;9.20;;
10412;SDS011;5252;42.602;23.386;2022-12-18T07:22:59;10.43;;;9.43;;
10412;SDS011;5252;42.602;23.386;2022-12-18T07:25:27;10.27;;;9.20;;
10412;SDS011;5252;42.602;23.386;2022-12-18T07:27:54;10.50;;;9.40;;
10412;SDS011;5252;42.602;23.386;2022-12-18T07:30:20;10.68;;;9.57;;
10412;SDS011;5252;42.602;23.386;2022-12-18T07:32:48;11.85;;;10.65;;
10412;SDS011;5252;42.602;23.386;2022-12-18T07:35:15;10.45;;;9.35;;
10412;SDS011;5252;42.602;23.386;2022-12-18T07:37:41;11.73;;;10.07;;
10412;SDS011;5252;42.602;23.386;2022-12-18T07:40:08;10.05;;;9.05;;
10412;SDS011;5252;42.602;23.386;2022-12-18T07:42:35;10.55;;;9.45;;
10412;SDS011;5252;42.602;23.386;2022-12-18T07:45:02;11.32;;;10.13;;
10412;SDS011;5252;42.602;23.386;2022-12-18T07:47:29;13.18;;;11.77;;
10412;SDS011;5252;42.602;23.386;2022-12-18T07:49:57;10.98;;;9.93;;
10412;SDS011;5252;42.602;23.386;2022-12-18T07:52:23;11.38;;;9.93;;
10412;SDS011;5252;42.602;23.386;2022-12-18T07:54:50;11.55;;;9.85;;
10412;SDS011;5252;42.602;23.386;2022-12-18T07:57:17;11.63;;;10.43;;
10412;SDS011;5252;42.602;23.386;2022-12-18T07:59:43;11.93;;;10.65;;
10412;SDS011;5252;42.602;23.386;2022-12-18T08:02:10;12.57;;;11.27;;
10412;SDS011;5252;42.602;23.386;2022-12-18T08:04:36;13.18;;;11.77;;
10412;SDS011;5252;42.602;23.386;2022-12-18T08:07:04;14.57;;;12.93;;
10412;SDS011;5252;42.602;23.386;2022-12-18T08:09:31;12.80;;;11.45;;
10412;SDS011;5252;42.602;23.386;2022-12-18T08:11:57;12.15;;;10.85;;
10412;SDS011;5252;42.602;23.386;2022-12-18T08:14:24;12.55;;;11.25;;
10412;SDS011;5252;42.602;23.386;2022-12-18T08:16:51;14.20;;;11.93;;
10412;SDS011;5252;42.602;23.386;2022-12-18T08:19:17;14.02;;;11.73;;
10412;SDS011;5252;42.602;23.386;2022-12-18T08:21:44;13.70;;;11.88;;
10412;SDS011;5252;42.602;23.386;2022-12-18T08:24:12;14.02;;;12.15;;
10412;SDS011;5252;42.602;23.386;2022-12-18T08:26:39;14.82;;;13.07;;
10412;SDS011;5252;42.602;23.386;2022-12-18T08:29:05;13.57;;;12.07;;
10412;SDS011;5252;42.602;23.386;2022-12-18T08:31:32;14.32;;;12.88;;
10412;SDS011;5252;42.602;23.386;2022-12-18T08:33:59;15.13;;;13.13;;
10412;SDS011;5252;42.602;23.386;2022-12-18T08:36:26;14.88;;;13.05;;
10412;SDS011;5252;42.602;23.386;2022-12-18T08:38:52;15.80;;;13.48;;
10412;SDS011;5252;42.602;23.386;2022-12-18T08:41:20;15.73;;;13.63;;
10412;SDS011;5252;42.602;23.386;2022-12-18T08:43:47;15.27;;;13.40;;
10412;SDS011;5252;42.602;23.386;2022-12-18T08:46:32;17.42;;;15.05;;
10412;SDS011;5252;42.602;23.386;2022-12-18T08:49:00;15.35;;;13.75;;
10412;SDS011;5252;42.602;23.386;2022-12-18T08:51:26;14.48;;;12.98;;
10412;SDS011;5252;42.602;23.386;2022-12-18T08:53:53;17.90;;;14.43;;
10412;SDS011;5252;42.602;23.386;2022-12-18T08:56:21;15.98;;;14.27;;
10412;SDS011;5252;42.602;23.386;2022-12-18T08:58:47;17.00;;;14.50;;
10412;SDS011;5252;42.602;23.386;2022-12-18T09:01:14;16.75;;;15.00;;
10412;SDS011;5252;42.602;23.386;2022-12-18T09:03:40;16.45;;;14.73;;
10412;SDS011;5252;42.602;23.386;2022-12-18T09:06:07;16.35;;;14.35;;
10412;SDS011;5252;42.602;23.386;2022-12-18T09:08:33;16.25;;;14.45;;
10412;SDS011;5252;42.602;23.386;2022-12-18T09:11:01;16.13;;;13.52;;
10412;SDS011;5252;42.602;23.386;2022-12-18T09:13:29;15.27;;;13.68;;
10412;SDS011;5252;42.602;23.386;2022-12-18T09:15:56;17.30;;;15.43;;
10412;SDS011;5252;42.602;23.386;2022-12-18T09:18:23;17.30;;;15.45;;
10412;SDS011;5252;42.602;23.386;2022-12-18T09:20:49;16.65;;;14.63;;
10412;SDS011;5252;42.602;23.386;2022-12-18T09:23:17;16.80;;;15.10;;
10412;SDS011;5252;42.602;23.386;2022-12-18T09:25:44;19.98;;;15.80;;
10412;SDS011;5252;42.602;23.386;2022-12-18T09:28:11;20.33;;;16.27;;
10412;SDS011;5252;42.602;23.386;2022-12-18T09:30:44;17.20;;;15.38;;
10412;SDS011;5252;42.602;23.386;2022-12-18T09:33:11;18.05;;;16.13;;
10412;SDS011;5252;42.602;23.386;2022-12-18T09:35:37;18.10;;;16.17;;
10412;SDS011;5252;42.602;23.386;2022-12-18T09:38:04;20.60;;;17.45;;
10412;SDS011;5252;42.602;23.386;2022-12-18T09:40:32;20.88;;;18.38;;
10412;SDS011;5252;42.602;23.386;2022-12-18T09:43:00;22.70;;;19.08;;
10412;SDS011;5252;42.602;23.386;2022-12-18T09:45:29;22.10;;;19.75;;
10412;SDS011;5252;42.602;23.386;2022-12-18T09:47:58;20.55;;;18.35;;
10412;SDS011;5252;42.602;23.386;2022-12-18T09:50:27;21.02;;;18.80;;
10412;SDS011;5252;42.602;23.386;2022-12-18T09:52:56;20.70;;;18.50;;
10412;SDS011;5252;42.602;23.386;2022-12-18T09:55:24;22.92;;;19.75;;
10412;SDS011;5252;42.602;23.386;2022-12-18T09:57:52;21.70;;;19.40;;
10412;SDS011;5252;42.602;23.386;2022-12-18T10:00:21;21.73;;;19.52;;
10412;SDS011;5252;42.602;23.386;2022-12-18T10:02:48;20.48;;;17.70;;
10412;SDS011;5252;42.602;23.386;2022-12-18T10:05:18;26.10;;;20.88;;
10412;SDS011;5252;42.602;23.386;2022-12-18T10:07:52;20.48;;;17.73;;
10412;SDS011;5252;42.602;23.386;2022-12-18T10:10:27;22.65;;;18.58;;
10412;SDS011;5252;42.602;23.386;2022-12-18T10:12:56;20.73;;;17.25;;
10412;SDS011;5252;42.602;23.386;2022-12-18T10:15:27;19.88;;;17.45;;
10412;SDS011;5252;42.602;23.386;2022-12-18T10:17:58;18.52;;;16.55;;
10412;SDS011;5252;42.602;23.386;2022-12-18T10:20:29;17.90;;;16.00;;
10412;SDS011;5252;42.602;23.386;2022-12-18T10:22:59;17.75;;;14.68;;
10412;SDS011;5252;42.602;23.386;2022-12-18T10:25:28;17.38;;;14.43;;
10412;SDS011;5252;42.602;23.386;2022-12-18T10:27:58;15.15;;;13.25;;
10412;SDS011;5252;42.602;23.386;2022-12-18T10:30:26;16.45;;;14.63;;
10412;SDS011;5252;42.602;23.386;2022-12-18T10:32:53;19.10;;;15.18;;
10412;SDS011;5252;42.602;23.386;2022-12-18T10:35:22;18.48;;;15.95;;
10412;SDS011;5252;42.602;23.386;2022-12-18T10:38:04;17.98;;;16.08;;
10412;SDS011;5252;42.602;23.386;2022-12-18T10:40:31;19.63;;;16.63;;
10412;SDS011;5252;42.602;23.386;2022-12-18T10:43:04;18.60;;;16.52;;
10412;SDS011;5252;42.602;23.386;2022-12-18T10:45:31;21.10;;;18.10;;
10412;SDS011;5252;42.602;23.386;2022-12-18T10:47:58;19.05;;;16.63;;
10412;SDS011;5252;42.602;23.386;2022-12-18T10:50:25;19.98;;;17.52;;
10412;SDS011;5252;42.602;23.386;2022-12-18T10:52:53;20.15;;;17.90;;
10412;SDS011;5252;42.602;23.386;2022-12-18T10:55:22;20.65;;;17.73;;
10412;SDS011;5252;42.602;23.386;2022-12-18T10:57:48;19.02;;;16.98;;
10412;SDS011;5252;42.602;23.386;2022-12-18T11:00:25;23.95;;;18.48;;
10412;SDS011;5252;42.602;23.386;2022-12-18T11:02:52;18.92;;;16.83;;
10412;SDS011;5252;42.602;23.386;2022-12-18T11:05:23;18.83;;;16.40;;
10412;SDS011;5252;42.602;23.386;2022-12-18T11:07:50;18.85;;;15.45;;
10412;SDS011;5252;42.602;23.386;2022-12-18T11:10:19;40.70;;;36.33;;
10412;SDS011;5252;42.602;23.386;2022-12-18T11:12:48;18.33;;;15.52;;
10412;SDS011;5252;42.602;23.386;2022-12-18T11:15:15;18.13;;;15.77;;
10412;SDS011;5252;42.602;23.386;2022-12-18T11:17:42;18.05;;;16.10;;
10412;SDS011;5252;42.602;23.386;2022-12-18T11:20:19;17.67;;;14.85;;
10412;SDS011;5252;42.602;23.386;2022-12-18T11:22:53;16.52;;;13.90;;
10412;SDS011;5252;42.602;23.386;2022-12-18T11:25:21;16.52;;;14.57;;
10412;SDS011;5252;42.602;23.386;2022-12-18T11:27:49;18.80;;;16.33;;
10412;SDS011;5252;42.602;23.386;2022-12-18T11:30:21;16.55;;;12.77;;
10412;SDS011;5252;42.602;23.386;2022-12-18T11:32:48;16.65;;;14.10;;
10412;SDS011;5252;42.602;23.386;2022-12-18T11:35:16;18.38;;;15.43;;
10412;SDS011;5252;42.602;23.386;2022-12-18T11:37:45;21.60;;;18.15;;
10412;SDS011;5252;42.602;23.386;2022-12-18T11:40:14;15.02;;;12.65;;
10412;SDS011;5252;42.602;23.386;2022-12-18T11:42:43;16.85;;;13.30;;
10412;SDS011;5252;42.602;23.386;2022-12-18T11:45:28;15.52;;;13.30;;
10412;SDS011;5252;42.602;23.386;2022-12-18T11:47:57;14.32;;;12.07;;
10412;SDS011;5252;42.602;23.386;2022-12-18T11:50:25;14.85;;;12.05;;
10412;SDS011;5252;42.602;23.386;2022-12-18T11:52:52;13.88;;;11.88;;
10412;SDS011;5252;42.602;23.386;2022-12-18T11:55:21;12.98;;;11.63;;
10412;SDS011;5252;42.602;23.386;2022-12-18T11:57:52;13.30;;;11.18;;
10412;SDS011;5252;42.602;23.386;2022-12-18T12:00:21;12.70;;;10.75;;
10412;SDS011;5252;42.602;23.386;2022-12-18T12:02:57;12.95;;;11.10;;
10412;SDS011;5252;42.602;23.386;2022-12-18T12:05:31;13.45;;;11.20;;
10412;SDS011;5252;42.602;23.386;2022-12-18T12:08:04;12.43;;;11.10;;
10412;SDS011;5252;42.602;23.386;2022-12-18T12:10:37;12.63;;;10.98;;
10412;SDS011;5252;42.602;23.386;2022-12-18T12:13:14;12.85;;;11.07;;
10412;SDS011;5252;42.602;23.386;2022-12-18T12:15:43;15.60;;;13.70;;
10412;SDS011;5252;42.602;23.386;2022-12-18T12:18:16;13.05;;;11.65;;
10412;SDS011;5252;42.602;23.386;2022-12-18T12:20:47;17.63;;;14.02;;
10412;SDS011;5252;42.602;23.386;2022-12-18T12:23:19;16.33;;;14.15;;
10412;SDS011;5252;42.602;23.386;2022-12-18T12:25:48;15.75;;;12.82;;
10412;SDS011;5252;42.602;23.386;2022-12-18T12:28:19;18.88;;;14.95;;
10412;SDS011;5252;42.602;23.386;2022-12-18T12:30:53;15.05;;;13.13;;
10412;SDS011;5252;42.602;23.386;2022-12-18T12:33:28;17.17;;;14.05;;
10412;SDS011;5252;42.602;23.386;2022-12-18T12:36:00;16.73;;;14.50;;
10412;SDS011;5252;42.602;23.386;2022-12-18T12:38:30;17.88;;;15.52;;
10412;SDS011;5252;42.602;23.386;2022-12-18T12:40:58;15.77;;;13.90;;
10412;SDS011;5252;42.602;23.386;2022-12-18T12:43:28;18.88;;;15.57;;
10412;SDS011;5252;42.602;23.386;2022-12-18T12:45:55;15.40;;;13.60;;
10412;SDS011;5252;42.602;23.386;2022-12-18T12:48:31;17.00;;;14.70;;
10412;SDS011;5252;42.602;23.386;2022-12-18T12:50:58;16.48;;;14.23;;
10412;SDS011;5252;42.602;23.386;2022-12-18T12:53:28;15.38;;;13.52;;
10412;SDS011;5252;42.602;23.386;2022-12-18T12:55:56;17.02;;;14.90;;
10412;SDS011;5252;42.602;23.386;2022-12-18T12:58:26;15.90;;;13.82;;
10412;SDS011;5252;42.602;23.386;2022-12-18T13:00:59;17.75;;;13.73;;
10412;SDS011;5252;42.602;23.386;2022-12-18T13:03:32;16.70;;;13.07;;
10412;SDS011;5252;42.602;23.386;2022-12-18T13:06:02;20.70;;;18.48;;
10412;SDS011;5252;42.602;23.386;2022-12-18T13:08:32;16.58;;;14.45;;
10412;SDS011;5252;42.602;23.386;2022-12-18T13:10:58;16.13;;;14.30;;
10412;SDS011;5252;42.602;23.386;2022-12-18T13:13:49;17.42;;;14.75;;
10412;SDS011;5252;42.602;23.386;2022-12-18T13:16:18;17.00;;;15.27;;
10412;SDS011;5252;42.602;23.386;2022-12-18T13:18:49;16.58;;;14.73;;
10412;SDS011;5252;42.602;23.386;2022-12-18T13:21:19;19.73;;;16.35;;
10412;SDS011;5252;42.602;23.386;2022-12-18T13:23:47;16.73;;;14.90;;
10412;SDS011;5252;42.602;23.386;2022-12-18T13:26:32;17.77;;;14.60;;
10412;SDS011;5252;42.602;23.386;2022-12-18T13:28:59;17.00;;;15.20;;
10412;SDS011;5252;42.602;23.386;2022-12-18T13:34:16;29.48;;;26.35;;
10412;SDS011;5252;42.602;23.386;2022-12-18T13:36:43;18.00;;;15.27;;
10412;SDS011;5252;42.602;23.386;2022-12-18T13:39:11;18.35;;;16.45;;
10412;SDS011;5252;42.602;23.386;2022-12-18T13:41:38;20.15;;;16.55;;
10412;SDS011;5252;42.602;23.386;2022-12-18T13:44:11;22.40;;;18.15;;
10412;SDS011;5252;42.602;23.386;2022-12-18T13:46:42;31.67;;;28.27;;
10412;SDS011;5252;42.602;23.386;2022-12-18T13:49:16;21.40;;;18.55;;
10412;SDS011;5252;42.602;23.386;2022-12-18T13:51:46;19.23;;;16.67;;
10412;SDS011;5252;42.602;23.386;2022-12-18T13:54:17;21.33;;;19.05;;
10412;SDS011;5252;42.602;23.386;2022-12-18T13:56:45;30.50;;;27.60;;
10412;SDS011;5252;42.602;23.386;2022-12-18T13:59:13;26.92;;;24.15;;
10412;SDS011;5252;42.602;23.386;2022-12-18T14:01:44;17.25;;;14.88;;
10412;SDS011;5252;42.602;23.386;2022-12-18T14:04:11;17.90;;;14.82;;
10412;SDS011;5252;42.602;23.386;2022-12-18T14:06:39;18.85;;;15.75;;
10412;SDS011;5252;42.602;23.386;2022-12-18T14:09:10;18.83;;;16.88;;
10412;SDS011;5252;42.602;23.386;2022-12-18T14:11:39;18.48;;;16.38;;
10412;SDS011;5252;42.602;23.386;2022-12-18T14:14:05;18.88;;;16.70;;
10412;SDS011;5252;42.602;23.386;2022-12-18T14:16:33;20.60;;;18.40;;
10412;SDS011;5252;42.602;23.386;2022-12-18T14:19:00;19.67;;;17.58;;
10412;SDS011;5252;42.602;23.386;2022-12-18T14:21:27;44.75;;;33.22;;
10412;SDS011;5252;42.602;23.386;2022-12-18T14:24:04;20.08;;;16.60;;
10412;SDS011;5252;42.602;23.386;2022-12-18T14:26:31;20.80;;;18.05;;
10412;SDS011;5252;42.602;23.386;2022-12-18T14:28:59;18.10;;;16.20;;
10412;SDS011;5252;42.602;23.386;2022-12-18T14:31:27;21.13;;;18.27;;
10412;SDS011;5252;42.602;23.386;2022-12-18T14:33:53;32.72;;;29.23;;
10412;SDS011;5252;42.602;23.386;2022-12-18T14:36:20;20.40;;;17.48;;
10412;SDS011;5252;42.602;23.386;2022-12-18T14:38:48;20.67;;;17.50;;
10412;SDS011;5252;42.602;23.386;2022-12-18T14:41:17;19.30;;;17.13;;